3 luglio 2022

Tempo Codice Tempo metereologico Temp. Vista Base nuvolosa Vento METAR/SPECI
12:25 am
V
63 °F 6¼ mi+ - 060° 060° 2 kt METAR EHGG 022225Z AUTO 06002KT 9999 NSC 17/14 Q1017

2 luglio 2022

Tempo Codice Tempo metereologico Temp. Vista Base nuvolosa Vento METAR/SPECI
11:55 pm
V
63 °F 6¼ mi+ - 070° 070° 3 kt METAR EHGG 022155Z AUTO 07003KT 9999 FEW015CB 17/14 Q1018
11:25 pm
V
63 °F 6¼ mi+ - 070° 070° 2 kt METAR EHGG 022125Z AUTO 07002KT 9999 FEW015CB 17/14 Q1018
10:55 pm
V
64 °F 6¼ mi+ - 110° 110° 1 kt METAR EHGG 022055Z AUTO 11001KT 9999 -RA NSC 18/14 Q1018 NOSIG
10:25 pm
V
66 °F 6¼ mi+ - 100° 100° 4 kt METAR EHGG 022025Z AUTO 10004KT 9999 NSC 19/13 Q1018 REDZ NOSIG
9:55 pm
V
66 °F 6¼ mi+ - 100° 100° 3 kt METAR EHGG 021955Z AUTO 10003KT 9999 NSC 19/14 Q1018 NOSIG
9:25 pm
V
68 °F 6¼ mi+ - 100° 100° 3 kt METAR EHGG 021925Z AUTO 10003KT 9999 NSC 20/13 Q1018 NOSIG
8:55 pm
V
68 °F 6¼ mi+ - Var Var 2 kt METAR EHGG 021855Z AUTO VRB02KT 9999 NSC 20/12 Q1018 NOSIG
8:25 pm
V
70 °F 6¼ mi+ - Var 000° 0 kt METAR EHGG 021825Z AUTO 00000KT 9999 NSC 21/12 Q1018 NOSIG
7:55 pm
V
70 °F 6¼ mi+ - 300° 300° 2 kt METAR EHGG 021755Z AUTO 30002KT 9999 NSC 21/11 Q1018 NOSIG
7:25 pm
V
72 °F 6¼ mi+ - Var Var 1 kt METAR EHGG 021725Z AUTO VRB01KT 9999 NSC 22/10 Q1018 NOSIG
6:55 pm
V
72 °F 6¼ mi+ - 200° 200° 3 kt METAR EHGG 021655Z AUTO 20003KT 160V240 9999 NSC 22/10 Q1019 NOSIG
6:25 pm
V
72 °F 6¼ mi+ - 220° 220° 4 kt METAR EHGG 021625Z AUTO 22004KT 180V250 9999 NSC 22/10 Q1019 NOSIG
5:55 pm
V
72 °F 6¼ mi+ - 220° 220° 4 kt METAR EHGG 021555Z AUTO 22004KT 180V280 9999 NSC 22/10 Q1019 NOSIG
5:25 pm
V
72 °F 6¼ mi+ - 210° 210° 6 kt METAR EHGG 021525Z AUTO 21006KT 170V250 9999 NSC 22/10 Q1019 NOSIG
4:55 pm
V
72 °F 6¼ mi+ - 200° 200° 6 kt METAR EHGG 021455Z AUTO 20006KT 170V240 9999 NSC 22/11 Q1020 NOSIG
4:25 pm
V
70 °F 6¼ mi+ - 210° 210° 8 kt METAR EHGG 021425Z AUTO 21008KT 170V230 9999 NSC 21/10 Q1020 NOSIG
3:55 pm
V
72 °F 6¼ mi+ - 210° 210° 8 kt METAR EHGG 021355Z AUTO 21008KT 170V240 9999 NSC 22/09 Q1020 NOSIG
3:25 pm
V
72 °F 6¼ mi+ - 220° 220° 7 kt METAR EHGG 021325Z AUTO 22007KT 180V250 9999 NSC 22/10 Q1020 NOSIG
2:55 pm
V
72 °F 6¼ mi+ - 230° 230° 9 kt METAR EHGG 021255Z AUTO 23009KT 200V290 9999 NSC 22/10 Q1020 NOSIG
2:25 pm
V
70 °F 6¼ mi+ - 240° 240° 9 kt METAR EHGG 021225Z AUTO 24009KT 170V280 9999 NSC 21/09 Q1020 NOSIG
1:55 pm
V
72 °F 6¼ mi+ - 240° 240° 12 kt METAR EHGG 021155Z AUTO 24012KT 190V280 9999 NSC 22/09 Q1020 NOSIG
1:25 pm
V
72 °F 6¼ mi+ - 230° 230° 15 kt METAR EHGG 021125Z AUTO 23015KT 200V270 9999 NSC 22/09 Q1021 NOSIG
12:55 pm
V
68 °F 6¼ mi+ - 240° 240° 13 kt METAR EHGG 021055Z AUTO 24013KT 210V270 9999 NSC 20/09 Q1021 NOSIG
12:25 pm
V
70 °F 6¼ mi+ - 230° 230° 15 kt METAR EHGG 021025Z AUTO 23015KT 190V270 9999 NSC 21/08 Q1021 NOSIG
11:55 am
V
70 °F 6¼ mi+ - 230° 230° 15 kt METAR EHGG 020955Z AUTO 23015KT 200V260 9999 NCD 21/09 Q1021 NOSIG
11:25 am
V
68 °F 6¼ mi+ - 200° 200° 12 kt METAR EHGG 020925Z AUTO 20012KT 170V240 9999 NSC 20/09 Q1021 NOSIG
10:55 am
V
68 °F 6¼ mi+ - 210° 210° 13 kt METAR EHGG 020855Z AUTO 21013KT 170V240 9999 NCD 20/10 Q1021 NOSIG
10:25 am
V
66 °F 6¼ mi+ - 210° 210° 13 kt METAR EHGG 020825Z AUTO 21013KT 170V260 9999 NCD 19/11 Q1021 NOSIG
9:55 am
V
64 °F 6¼ mi+ - 210° 210° 12 kt METAR EHGG 020755Z AUTO 21012KT 170V240 9999 NSC 18/11 Q1021 NOSIG
9:25 am
V
63 °F 6¼ mi+ - 210° 210° 11 kt METAR EHGG 020725Z AUTO 21011KT 180V240 9999 NCD 17/11 Q1021 NOSIG
8:55 am
V
63 °F 6¼ mi+ - 200° 200° 10 kt METAR EHGG 020655Z AUTO 20010KT 170V230 9999 NCD 17/12 Q1021 NOSIG
8:25 am
V
61 °F 6¼ mi+ - 200° 200° 9 kt METAR EHGG 020625Z AUTO 20009KT 170V230 9999 NCD 16/12 Q1021 NOSIG
7:55 am
V
59 °F 6¼ mi+ - 210° 210° 9 kt METAR EHGG 020555Z AUTO 21009KT 9999 NCD 15/12 Q1020 NOSIG
7:25 am
V
57 °F 6¼ mi+ - 190° 190° 7 kt METAR EHGG 020525Z AUTO 19007KT 9999 NCD 14/12 Q1020 NOSIG
6:55 am
V
55 °F 6¼ mi+ - 190° 190° 5 kt METAR EHGG 020455Z AUTO 19005KT 9999 NCD 13/11 Q1020 NOSIG
6:25 am
V
55 °F 6¼ mi+ - 180° 180° 5 kt METAR EHGG 020425Z AUTO 18005KT 9999 NCD 13/11 Q1020 NOSIG
5:55 am
V
54 °F 6¼ mi+ - 180° 180° 6 kt METAR EHGG 020355Z AUTO 18006KT 9999 NCD 12/10 Q1020
5:25 am
V
54 °F 6¼ mi+ - 190° 190° 7 kt METAR EHGG 020325Z AUTO 19007KT 9999 NCD 12/10 Q1020
4:55 am
V
54 °F 6¼ mi+ - 200° 200° 7 kt METAR EHGG 020255Z AUTO 20007KT 170V230 9999 NCD 12/10 Q1020
4:25 am
V
54 °F 6¼ mi+ - 190° 190° 6 kt METAR EHGG 020225Z AUTO 19006KT 9999 NCD 12/10 Q1020
3:55 am
V
54 °F 6¼ mi+ - 190° 190° 5 kt METAR EHGG 020155Z AUTO 19005KT 9999 NCD 12/10 Q1020
3:25 am
V
54 °F 6¼ mi+ - 190° 190° 7 kt METAR EHGG 020125Z AUTO 19007KT 9999 NCD 12/10 Q1020
2:55 am
V
52 °F 6¼ mi+ - 200° 200° 6 kt METAR EHGG 020055Z AUTO 20006KT 9999 NCD 11/09 Q1020
2:25 am
V
54 °F 6¼ mi+ - 200° 200° 6 kt METAR EHGG 020025Z AUTO 20006KT 9999 NCD 12/10 Q1020
1:55 am
V
55 °F 6¼ mi+ - 190° 190° 6 kt METAR EHGG 012355Z AUTO 19006KT 9999 NCD 13/11 Q1020
1:25 am
V
52 °F 6¼ mi+ - 190° 190° 4 kt METAR EHGG 012325Z AUTO 19004KT 9999 NCD 11/09 Q1020
12:55 am
V
54 °F 6¼ mi+ - 190° 190° 2 kt METAR EHGG 012255Z AUTO 19002KT 9999 NCD 12/10 Q1020
12:25 am
V
54 °F 6¼ mi+ - 200° 200° 3 kt METAR EHGG 012225Z AUTO 20003KT 160V230 9999 NSC 12/10 Q1020

1 luglio 2022

Tempo Codice Tempo metereologico Temp. Vista Base nuvolosa Vento METAR/SPECI
11:55 pm
V
55 °F 6¼ mi+ - 190° 190° 3 kt METAR EHGG 012155Z AUTO 19003KT 9999 NCD 13/10 Q1020
11:25 pm
V
55 °F 6¼ mi+ - 170° 170° 4 kt METAR EHGG 012125Z AUTO 17004KT 9999 NCD 13/10 Q1020
10:55 pm
V
55 °F 6¼ mi+ - 200° 200° 4 kt METAR EHGG 012055Z AUTO 20004KT 9999 NCD 13/10 Q1020 NOSIG
10:25 pm
V
57 °F 6¼ mi+ - 240° 240° 3 kt METAR EHGG 012025Z AUTO 24003KT 9999 NCD 14/10 Q1019 NOSIG
9:55 pm
V
61 °F 6¼ mi+ - 250° 250° 5 kt METAR EHGG 011955Z AUTO 25005KT 9999 NCD 16/11 Q1019 NOSIG
9:25 pm
V
63 °F 6¼ mi+ - 240° 240° 8 kt METAR EHGG 011925Z AUTO 24008KT 9999 NCD 17/10 Q1018 NOSIG
8:55 pm
V
64 °F 6¼ mi+ - 230° 230° 10 kt METAR EHGG 011855Z AUTO 23010KT 9999 NCD 18/10 Q1018 NOSIG
8:25 pm
V
66 °F 6¼ mi+ - 230° 230° 11 kt METAR EHGG 011825Z AUTO 23011KT 210V270 9999 NCD 19/11 Q1018 NOSIG
7:55 pm
V
66 °F 6¼ mi+ - 230° 230° 11 kt METAR EHGG 011755Z AUTO 23011KT 200V270 9999 NSC 19/11 Q1018 NOSIG
7:25 pm
V
66 °F 6¼ mi+ - 240° 240° 11 kt METAR EHGG 011725Z AUTO 24011KT 200V270 9999 NSC 19/11 Q1018 NOSIG
6:55 pm
V
68 °F 6¼ mi+ - 240° 240° 14 kt METAR EHGG 011655Z AUTO 24014KT 210V270 9999 NSC 20/10 Q1018 NOSIG
6:25 pm
V
68 °F 6¼ mi+ - 240° 240° 14 kt METAR EHGG 011625Z AUTO 24014KT 200V280 9999 NSC 20/11 Q1017 NOSIG
5:55 pm
V
70 °F 6¼ mi+ - 240° 240° 12 kt METAR EHGG 011555Z AUTO 24012KT 200V270 9999 NCD 21/10 Q1017 NOSIG
5:25 pm
V
70 °F 6¼ mi+ - 240° 240° 14 kt METAR EHGG 011525Z AUTO 24014KT 200V280 9999 FEW042 21/09 Q1017 NOSIG
4:55 pm
V
68 °F 6¼ mi+ - 230° 230° 15 kt METAR EHGG 011455Z AUTO 23015KT 200V260 9999 FEW042 20/10 Q1017 NOSIG
4:25 pm
V
70 °F 6¼ mi+ - 240° 240° 14 kt METAR EHGG 011425Z AUTO 24014KT 210V270 9999 NSC 21/09 Q1017 NOSIG
3:55 pm
V
70 °F 6¼ mi+ 4.300 ft 240° 240° 13 kt METAR EHGG 011355Z AUTO 24013KT 180V270 9999 SCT038 BKN043 BKN048 21/11 Q1016 NOSIG
3:25 pm
V
70 °F 6¼ mi+ - 230° 230° 12 kt METAR EHGG 011325Z AUTO 23012KT 200V270 9999 FEW042 21/11 Q1016 NOSIG
2:55 pm
V
68 °F 6¼ mi+ - 240° 240° 14 kt METAR EHGG 011255Z AUTO 24014KT 190V280 9999 NSC 20/10 Q1016 NOSIG
2:25 pm
V
66 °F 6¼ mi+ 3.000 ft 230° 230° 6 kt METAR EHGG 011225Z AUTO 23006KT 190V270 9999 FEW025 BKN030 19/13 Q1016 NOSIG
1:55 pm
V
64 °F 6¼ mi+ - 270° 270° 9 kt METAR EHGG 011155Z AUTO 27009KT 230V320 9999 FEW038 SCT043 18/11 Q1016 TEMPO 7000 SHRA FEW024CB
1:25 pm
M
64 °F 6¼ mi+ 2.700 ft 250° 250° 11 kt METAR EHGG 011125Z AUTO 25011KT 190V310 9999 BKN027 OVC030 18/10 Q1016 TEMPO FEW024CB
12:55 pm
V
66 °F 6¼ mi+ 3.000 ft 210° 210° 12 kt METAR EHGG 011055Z AUTO 21012KT 170V240 9999 SCT027 BKN030 BKN040 19/12 Q1016 NOSIG
12:25 pm
V
66 °F 6¼ mi+ - 210° 210° 12 kt METAR EHGG 011025Z AUTO 21012KT 180V240 9999 FEW022 SCT026 19/13 Q1016 NOSIG
11:55 am
M
64 °F 6¼ mi+ 2.100 ft 230° 230° 12 kt METAR EHGG 010955Z AUTO 23012KT 190V260 9999 BKN021 BKN026 18/13 Q1016 NOSIG
11:25 am
V
64 °F 6¼ mi+ - 220° 220° 12 kt METAR EHGG 010925Z AUTO 22012KT 190V260 9999 FEW016 SCT028 18/13 Q1015 NOSIG
10:55 am
M
63 °F 6¼ mi+ 1.500 ft 220° 220° 11 kt METAR EHGG 010855Z AUTO 22011KT 190V260 9999 FEW012 BKN015 BKN019 17/14 Q1015 NOSIG
10:25 am
M
63 °F 6¼ mi+ 1.600 ft 210° 210° 11 kt METAR EHGG 010825Z AUTO 21011KT 170V250 9999 SCT011 SCT013 BKN016 17/14 Q1015 BECMG SCT020
9:55 am
I
59 °F 6¼ mi+ 900 ft 210° 210° 11 kt METAR EHGG 010755Z AUTO 21011KT 9999 SCT008 BKN009 OVC012 15/14 Q1015 BECMG SCT020
9:25 am
I
59 °F 5 mi 900 ft 210° 210° 9 kt METAR EHGG 010725Z AUTO 21009KT 180V240 8000 SCT007 BKN009 OVC010 15/14 Q1015 BECMG SCT020
8:55 am
I
59 °F 4⅜ mi 800 ft 200° 200° 9 kt METAR EHGG 010655Z AUTO 20009KT 7000 SCT007/// BKN008/// BKN014/// 15/14 Q1014 BECMG 9999 SCT020
8:25 am
M
59 °F 4⅜ mi - 210° 210° 9 kt METAR EHGG 010625Z AUTO 21009KT 7000 FEW006 15/14 Q1014 BECMG 9999 BKN010
7:55 am
M
59 °F 3¾ mi - 210° 210° 9 kt METAR EHGG 010555Z AUTO 21009KT 180V240 6000 SCT006 SCT008 15/14 Q1014 TEMPO BKN007
7:25 am
M
57 °F 4⅜ mi - 210° 210° 9 kt METAR EHGG 010525Z AUTO 21009KT 7000 FEW005 SCT006 14/13 Q1014 TEMPO BKN007
6:55 am
V
57 °F 6¼ mi+ - 220° 220° 9 kt METAR EHGG 010455Z AUTO 22009KT 9999 NSC 14/13 Q1014 NOSIG
6:25 am
V
57 °F 6¼ mi+ - 210° 210° 7 kt METAR EHGG 010425Z AUTO 21007KT 9999 NSC 14/13 Q1013 NOSIG
5:55 am
V
57 °F 6¼ mi+ - 220° 220° 8 kt METAR EHGG 010355Z AUTO 22008KT 9999 NSC 14/13 Q1013
5:25 am
M
57 °F 6¼ mi+ 2.300 ft 230° 230° 8 kt METAR EHGG 010325Z AUTO 23008KT 210V270 9999 SCT020 BKN023 OVC028 14/13 Q1013
4:55 am
V
57 °F 6¼ mi+ - 230° 230° 7 kt METAR EHGG 010255Z AUTO 23007KT 9999 FEW044 14/13 Q1013
4:25 am
M
57 °F 6¼ mi+ 2.600 ft 230° 230° 8 kt METAR EHGG 010225Z AUTO 23008KT 9999 SCT020 BKN026 OVC031 14/14 Q1013
3:55 am
M
57 °F 6¼ mi+ 2.500 ft 240° 240° 6 kt METAR EHGG 010155Z AUTO 24006KT 9999 SCT019 BKN025 14/14 Q1012
3:25 am
I
59 °F 6¼ mi+ 600 ft 250° 250° 8 kt METAR EHGG 010125Z AUTO 25008KT 220V280 9999 FEW005 BKN006 BKN008 15/14 Q1013
2:55 am
M
59 °F 6¼ mi+ 1.700 ft 260° 260° 8 kt METAR EHGG 010055Z AUTO 26008KT 230V290 9999 FEW005 SCT008 BKN017 15/14 Q1012
2:25 am
I
57 °F 6¼ mi+ 600 ft 250° 250° 7 kt METAR EHGG 010025Z AUTO 25007KT 9999 FEW005/// BKN006/// OVC008/// 14/14 Q1012
1:25 am
M
57 °F 6¼ mi+ 2.700 ft 250° 250° 10 kt METAR EHGG 302325Z AUTO 25010KT 220V280 9999 FEW022 BKN027 OVC031 14/13 Q1012
12:55 am
M
59 °F 6¼ mi+ 1.300 ft 260° 260° 11 kt METAR EHGG 302255Z AUTO 26011KT 230V290 9999 RA FEW009 SCT010 BKN013 15/14 Q1012
12:25 am
I
59 °F 6¼ mi+ 800 ft 290° 290° 9 kt METAR EHGG 302225Z AUTO 29009KT 250V320 9999 FEW005 BKN008 OVC009 15/14 Q1011

30 giugno 2022

Tempo Codice Tempo metereologico Temp. Vista Base nuvolosa Vento METAR/SPECI
11:55 pm
M
59 °F 6¼ mi+ 1.000 ft 300° 300° 11 kt METAR EHGG 302155Z AUTO 30011KT 250V340 9999 FEW007 SCT008 BKN010 FEW015CB 15/14 Q1011
11:25 pm
M
59 °F 6¼ mi+ 1.000 ft 290° 290° 10 kt METAR EHGG 302125Z AUTO 29010KT 250V340 9999 -SHRA FEW007 SCT008 BKN010 BKN015CB 15/14 Q1011 RETSRA
10:55 pm
I
61 °F 2⅝ mi 800 ft Var Var 4 kt METAR EHGG 302055Z AUTO VRB04KT 4200 +TSRA SCT006 BKN008 BKN009 BKN015CB 16/15 Q1011 BECMG BKN007 NSW
10:25 pm
M
63 °F 6¼ mi+ 1.300 ft 270° 270° 14 kt METAR EHGG 302025Z AUTO 27014KT 240V320 9999 -TSRA SCT010 BKN013 FEW015CB OVC016 17/15 Q1011 TEMPO 24020G35KT 2000 TSRA
9:55 pm
M
64 °F 6¼ mi+ 1.600 ft 300° 300° 14 kt METAR EHGG 301955Z AUTO 30014KT 250V330 9999 TS FEW013 FEW015CB OVC016 18/15 Q1010 TEMPO 24020G35KT 2000 TSRA SCT050CB
9:25 pm
M
64 °F 6¼ mi+ 1.400 ft 300° 300° 14 kt METAR EHGG 301925Z AUTO 30014KT 260V340 9999 SCT012 BKN014 FEW015CB 18/16 Q1010 NOSIG
8:55 pm
V
66 °F 6¼ mi+ - 300° 300° 13 kt METAR EHGG 301855Z AUTO 30013KT 260V330 9999 FEW012 19/16 Q1009 NOSIG
8:25 pm
V
70 °F 6¼ mi+ - 310° 310° 12 kt METAR EHGG 301825Z AUTO 31012KT 270V350 9999 NSC 21/17 Q1009 NOSIG
7:55 pm
V
72 °F 6¼ mi+ - 320° 320° 9 kt METAR EHGG 301755Z AUTO 32009KT 280V350 9999 NSC 22/17 Q1009 NOSIG
7:25 pm
V
72 °F 6¼ mi+ - 330° 330° 10 kt METAR EHGG 301725Z AUTO 33010KT 280V010 9999 NCD 22/17 Q1009 NOSIG
6:55 pm
V
73 °F 6¼ mi+ - 320° 320° 11 kt METAR EHGG 301655Z AUTO 32011KT 290V350 9999 NCD 23/17 Q1009 NOSIG
6:25 pm
V
73 °F 6¼ mi+ - 320° 320° 10 kt METAR EHGG 301625Z AUTO 32010KT 280V010 9999 NSC 23/18 Q1010 NOSIG
5:55 pm
V
75 °F 6¼ mi+ - 340° 340° 8 kt METAR EHGG 301555Z AUTO 34008KT 300V020 9999 NSC 24/18 Q1010 NOSIG
5:25 pm
V
75 °F 6¼ mi+ - 350° 350° 7 kt METAR EHGG 301525Z AUTO 35007KT 300V040 9999 NSC 24/18 Q1010 NOSIG
4:55 pm
V
75 °F 6¼ mi+ - 350° 350° 8 kt METAR EHGG 301455Z AUTO 35008KT 300V030 9999 NSC 24/18 Q1010 NOSIG
Dati più vecchi

Scarica la nostra applicazione

Facile accesso a tutte le previsioni dell'aviazione sul tuo cellulare e tablet.
Con molte caratteristiche non disponibili sul sito web, come il supporto offline e una lista personale di aeroporti.

Noi e le terze parti seguiamo il tuo comportamento in internet sul nostro sito web con i cookie. Se continui, riteniamo che tu sia d'accordo con la nostra politica sui cookie. Per saperne di più